sensor_id;sensor_type;location;lat;lon;timestamp;P1;durP1;ratioP1;P2;durP2;ratioP2
56537;SDS011;42435;53.292;6.000;2022-10-29T00:01:59;25.60;;;12.85;;
56537;SDS011;42435;53.292;6.000;2022-10-29T00:04:24;43.08;;;15.07;;
56537;SDS011;42435;53.292;6.000;2022-10-29T00:06:50;43.40;;;15.32;;
56537;SDS011;42435;53.292;6.000;2022-10-29T00:09:15;42.00;;;15.25;;
56537;SDS011;42435;53.292;6.000;2022-10-29T00:11:41;32.03;;;14.45;;
56537;SDS011;42435;53.292;6.000;2022-10-29T00:14:07;25.55;;;11.35;;
56537;SDS011;42435;53.292;6.000;2022-10-29T00:16:36;32.20;;;12.05;;
56537;SDS011;42435;53.292;6.000;2022-10-29T00:19:03;28.95;;;11.57;;
56537;SDS011;42435;53.292;6.000;2022-10-29T00:21:30;25.45;;;13.00;;
56537;SDS011;42435;53.292;6.000;2022-10-29T00:23:56;25.90;;;11.70;;
56537;SDS011;42435;53.292;6.000;2022-10-29T00:26:23;34.30;;;12.25;;
56537;SDS011;42435;53.292;6.000;2022-10-29T00:28:54;29.10;;;11.43;;
56537;SDS011;42435;53.292;6.000;2022-10-29T00:31:21;30.90;;;12.20;;
56537;SDS011;42435;53.292;6.000;2022-10-29T00:33:48;51.35;;;13.80;;
56537;SDS011;42435;53.292;6.000;2022-10-29T00:36:16;60.08;;;12.05;;
56537;SDS011;42435;53.292;6.000;2022-10-29T00:38:43;53.70;;;12.68;;
56537;SDS011;42435;53.292;6.000;2022-10-29T00:43:46;73.90;;;13.90;;
56537;SDS011;42435;53.292;6.000;2022-10-29T00:46:25;84.80;;;14.65;;
56537;SDS011;42435;53.292;6.000;2022-10-29T00:48:55;63.72;;;11.90;;
56537;SDS011;42435;53.292;6.000;2022-10-29T00:51:27;31.48;;;9.65;;
56537;SDS011;42435;53.292;6.000;2022-10-29T00:53:56;42.05;;;12.00;;
56537;SDS011;42435;53.292;6.000;2022-10-29T00:56:32;56.15;;;12.55;;
56537;SDS011;42435;53.292;6.000;2022-10-29T00:59:02;48.95;;;11.63;;
56537;SDS011;42435;53.292;6.000;2022-10-29T01:01:29;47.35;;;11.57;;
56537;SDS011;42435;53.292;6.000;2022-10-29T01:03:57;66.78;;;12.02;;
56537;SDS011;42435;53.292;6.000;2022-10-29T01:06:24;33.83;;;10.07;;
56537;SDS011;42435;53.292;6.000;2022-10-29T01:08:52;73.00;;;12.82;;
56537;SDS011;42435;53.292;6.000;2022-10-29T01:17:13;66.60;;;12.95;;
56537;SDS011;42435;53.292;6.000;2022-10-29T01:22:37;27.55;;;10.00;;
56537;SDS011;42435;53.292;6.000;2022-10-29T01:30:48;24.23;;;9.15;;
56537;SDS011;42435;53.292;6.000;2022-10-29T01:36:18;24.90;;;8.77;;
56537;SDS011;42435;53.292;6.000;2022-10-29T01:44:14;41.67;;;10.65;;
56537;SDS011;42435;53.292;6.000;2022-10-29T01:46:58;39.35;;;9.98;;
56537;SDS011;42435;53.292;6.000;2022-10-29T01:49:34;44.45;;;10.13;;
56537;SDS011;42435;53.292;6.000;2022-10-29T01:52:07;27.15;;;8.70;;
56537;SDS011;42435;53.292;6.000;2022-10-29T01:54:43;63.05;;;9.98;;
56537;SDS011;42435;53.292;6.000;2022-10-29T01:57:26;29.67;;;8.82;;
56537;SDS011;42435;53.292;6.000;2022-10-29T01:59:54;68.35;;;12.93;;
56537;SDS011;42435;53.292;6.000;2022-10-29T02:02:46;67.28;;;13.15;;
56537;SDS011;42435;53.292;6.000;2022-10-29T02:07:51;47.40;;;10.90;;
56537;SDS011;42435;53.292;6.000;2022-10-29T02:10:31;37.80;;;10.50;;
56537;SDS011;42435;53.292;6.000;2022-10-29T02:13:03;19.75;;;7.95;;
56537;SDS011;42435;53.292;6.000;2022-10-29T02:18:04;52.35;;;12.18;;
56537;SDS011;42435;53.292;6.000;2022-10-29T02:20:31;30.33;;;9.68;;
56537;SDS011;42435;53.292;6.000;2022-10-29T02:22:57;76.15;;;12.48;;
56537;SDS011;42435;53.292;6.000;2022-10-29T02:25:23;47.10;;;11.10;;
56537;SDS011;42435;53.292;6.000;2022-10-29T02:27:49;68.22;;;15.55;;
56537;SDS011;42435;53.292;6.000;2022-10-29T02:30:14;57.70;;;12.00;;
56537;SDS011;42435;53.292;6.000;2022-10-29T02:32:40;37.55;;;9.00;;
56537;SDS011;42435;53.292;6.000;2022-10-29T02:35:06;50.97;;;11.27;;
56537;SDS011;42435;53.292;6.000;2022-10-29T02:37:32;88.13;;;14.88;;
56537;SDS011;42435;53.292;6.000;2022-10-29T02:39:58;112.53;;;16.90;;
56537;SDS011;42435;53.292;6.000;2022-10-29T02:42:23;72.82;;;12.80;;
56537;SDS011;42435;53.292;6.000;2022-10-29T02:44:49;84.13;;;12.38;;
56537;SDS011;42435;53.292;6.000;2022-10-29T02:47:14;35.17;;;10.40;;
56537;SDS011;42435;53.292;6.000;2022-10-29T02:49:40;30.15;;;8.82;;
56537;SDS011;42435;53.292;6.000;2022-10-29T02:52:06;40.17;;;11.35;;
56537;SDS011;42435;53.292;6.000;2022-10-29T02:54:31;21.88;;;8.77;;
56537;SDS011;42435;53.292;6.000;2022-10-29T02:56:59;66.03;;;11.77;;
56537;SDS011;42435;53.292;6.000;2022-10-29T02:59:25;35.72;;;9.60;;
56537;SDS011;42435;53.292;6.000;2022-10-29T03:01:51;36.95;;;8.23;;
56537;SDS011;42435;53.292;6.000;2022-10-29T03:04:25;35.78;;;10.75;;
56537;SDS011;42435;53.292;6.000;2022-10-29T03:07:23;71.28;;;12.18;;
56537;SDS011;42435;53.292;6.000;2022-10-29T03:09:58;68.60;;;11.23;;
56537;SDS011;42435;53.292;6.000;2022-10-29T03:12:33;113.78;;;15.57;;
56537;SDS011;42435;53.292;6.000;2022-10-29T03:14:59;37.67;;;9.25;;
56537;SDS011;42435;53.292;6.000;2022-10-29T03:17:25;53.40;;;11.80;;
56537;SDS011;42435;53.292;6.000;2022-10-29T03:19:56;26.33;;;8.13;;
56537;SDS011;42435;53.292;6.000;2022-10-29T03:22:22;21.20;;;8.30;;
56537;SDS011;42435;53.292;6.000;2022-10-29T03:24:47;30.20;;;9.05;;
56537;SDS011;42435;53.292;6.000;2022-10-29T03:27:13;18.70;;;7.60;;
56537;SDS011;42435;53.292;6.000;2022-10-29T03:29:38;29.45;;;9.23;;
56537;SDS011;42435;53.292;6.000;2022-10-29T03:32:04;20.40;;;8.32;;
56537;SDS011;42435;53.292;6.000;2022-10-29T03:34:30;18.88;;;7.32;;
56537;SDS011;42435;53.292;6.000;2022-10-29T03:36:58;18.08;;;7.85;;
56537;SDS011;42435;53.292;6.000;2022-10-29T03:39:23;18.08;;;7.18;;
56537;SDS011;42435;53.292;6.000;2022-10-29T03:41:49;22.63;;;7.50;;
56537;SDS011;42435;53.292;6.000;2022-10-29T03:44:14;31.95;;;7.95;;
56537;SDS011;42435;53.292;6.000;2022-10-29T03:46:42;35.72;;;9.82;;
56537;SDS011;42435;53.292;6.000;2022-10-29T03:49:11;31.02;;;8.43;;
56537;SDS011;42435;53.292;6.000;2022-10-29T03:51:36;43.92;;;9.82;;
56537;SDS011;42435;53.292;6.000;2022-10-29T03:54:03;32.47;;;8.48;;
56537;SDS011;42435;53.292;6.000;2022-10-29T03:56:29;46.53;;;9.65;;
56537;SDS011;42435;53.292;6.000;2022-10-29T03:58:54;42.60;;;10.15;;
56537;SDS011;42435;53.292;6.000;2022-10-29T04:01:29;27.17;;;7.93;;
56537;SDS011;42435;53.292;6.000;2022-10-29T04:03:55;60.67;;;12.02;;
56537;SDS011;42435;53.292;6.000;2022-10-29T04:06:20;26.77;;;7.75;;
56537;SDS011;42435;53.292;6.000;2022-10-29T04:08:46;49.08;;;9.50;;
56537;SDS011;42435;53.292;6.000;2022-10-29T04:11:12;39.38;;;8.77;;
56537;SDS011;42435;53.292;6.000;2022-10-29T04:13:38;30.88;;;9.25;;
56537;SDS011;42435;53.292;6.000;2022-10-29T04:16:04;53.53;;;11.60;;
56537;SDS011;42435;53.292;6.000;2022-10-29T04:18:32;54.25;;;11.63;;
56537;SDS011;42435;53.292;6.000;2022-10-29T04:21:01;46.33;;;10.68;;
56537;SDS011;42435;53.292;6.000;2022-10-29T04:23:27;48.03;;;10.85;;
56537;SDS011;42435;53.292;6.000;2022-10-29T04:25:54;60.97;;;11.68;;
56537;SDS011;42435;53.292;6.000;2022-10-29T04:28:21;65.10;;;12.43;;
56537;SDS011;42435;53.292;6.000;2022-10-29T04:30:46;56.80;;;11.73;;
56537;SDS011;42435;53.292;6.000;2022-10-29T04:33:20;65.85;;;12.50;;
56537;SDS011;42435;53.292;6.000;2022-10-29T04:35:52;63.85;;;13.05;;
56537;SDS011;42435;53.292;6.000;2022-10-29T04:38:21;44.95;;;10.98;;
56537;SDS011;42435;53.292;6.000;2022-10-29T04:40:46;80.32;;;13.52;;
56537;SDS011;42435;53.292;6.000;2022-10-29T04:43:12;33.30;;;9.15;;
56537;SDS011;42435;53.292;6.000;2022-10-29T04:45:41;80.45;;;13.77;;
56537;SDS011;42435;53.292;6.000;2022-10-29T04:48:15;49.40;;;11.00;;
56537;SDS011;42435;53.292;6.000;2022-10-29T04:50:43;63.72;;;11.00;;
56537;SDS011;42435;53.292;6.000;2022-10-29T04:53:13;75.35;;;14.45;;
56537;SDS011;42435;53.292;6.000;2022-10-29T04:55:39;96.70;;;15.90;;
56537;SDS011;42435;53.292;6.000;2022-10-29T04:58:05;106.60;;;17.10;;
56537;SDS011;42435;53.292;6.000;2022-10-29T05:00:37;51.88;;;12.85;;
56537;SDS011;42435;53.292;6.000;2022-10-29T05:03:09;88.75;;;16.25;;
56537;SDS011;42435;53.292;6.000;2022-10-29T05:05:35;120.28;;;20.40;;
56537;SDS011;42435;53.292;6.000;2022-10-29T05:08:17;68.90;;;16.80;;
56537;SDS011;42435;53.292;6.000;2022-10-29T05:10:46;147.85;;;21.88;;
56537;SDS011;42435;53.292;6.000;2022-10-29T05:13:17;234.27;;;29.35;;
56537;SDS011;42435;53.292;6.000;2022-10-29T05:15:48;197.18;;;26.42;;
56537;SDS011;42435;53.292;6.000;2022-10-29T05:18:15;137.07;;;22.45;;
56537;SDS011;42435;53.292;6.000;2022-10-29T05:20:43;145.65;;;24.20;;
56537;SDS011;42435;53.292;6.000;2022-10-29T05:23:12;122.75;;;20.63;;
56537;SDS011;42435;53.292;6.000;2022-10-29T05:25:38;98.72;;;18.10;;
56537;SDS011;42435;53.292;6.000;2022-10-29T05:28:12;102.10;;;16.45;;
56537;SDS011;42435;53.292;6.000;2022-10-29T05:30:39;97.72;;;16.80;;
56537;SDS011;42435;53.292;6.000;2022-10-29T05:33:08;99.93;;;17.25;;
56537;SDS011;42435;53.292;6.000;2022-10-29T05:35:35;59.85;;;12.85;;
56537;SDS011;42435;53.292;6.000;2022-10-29T05:38:01;61.08;;;15.85;;
56537;SDS011;42435;53.292;6.000;2022-10-29T05:40:27;79.72;;;16.70;;
56537;SDS011;42435;53.292;6.000;2022-10-29T05:42:57;82.30;;;18.85;;
56537;SDS011;42435;53.292;6.000;2022-10-29T05:45:22;36.85;;;12.27;;
56537;SDS011;42435;53.292;6.000;2022-10-29T05:47:53;119.18;;;19.85;;
56537;SDS011;42435;53.292;6.000;2022-10-29T05:50:23;131.02;;;21.73;;
56537;SDS011;42435;53.292;6.000;2022-10-29T05:55:24;71.03;;;17.35;;
56537;SDS011;42435;53.292;6.000;2022-10-29T05:57:54;90.47;;;19.23;;
56537;SDS011;42435;53.292;6.000;2022-10-29T06:00:24;114.43;;;19.45;;
56537;SDS011;42435;53.292;6.000;2022-10-29T06:02:51;128.77;;;20.08;;
56537;SDS011;42435;53.292;6.000;2022-10-29T06:05:17;124.05;;;19.98;;
56537;SDS011;42435;53.292;6.000;2022-10-29T06:07:45;98.93;;;18.40;;
56537;SDS011;42435;53.292;6.000;2022-10-29T06:10:16;79.90;;;17.42;;
56537;SDS011;42435;53.292;6.000;2022-10-29T06:12:43;152.02;;;20.92;;
56537;SDS011;42435;53.292;6.000;2022-10-29T06:15:09;172.77;;;20.25;;
56537;SDS011;42435;53.292;6.000;2022-10-29T06:17:41;124.80;;;16.70;;
56537;SDS011;42435;53.292;6.000;2022-10-29T06:20:08;148.93;;;19.33;;
56537;SDS011;42435;53.292;6.000;2022-10-29T06:22:35;95.13;;;15.52;;
56537;SDS011;42435;53.292;6.000;2022-10-29T06:25:01;99.22;;;14.95;;
56537;SDS011;42435;53.292;6.000;2022-10-29T06:27:26;89.90;;;15.75;;
56537;SDS011;42435;53.292;6.000;2022-10-29T06:29:52;112.13;;;18.08;;
56537;SDS011;42435;53.292;6.000;2022-10-29T06:32:17;250.05;;;26.20;;
56537;SDS011;42435;53.292;6.000;2022-10-29T06:34:46;74.30;;;12.05;;
56537;SDS011;42435;53.292;6.000;2022-10-29T06:37:11;152.80;;;21.88;;
56537;SDS011;42435;53.292;6.000;2022-10-29T06:39:37;141.68;;;18.17;;
56537;SDS011;42435;53.292;6.000;2022-10-29T06:42:03;98.68;;;16.88;;
56537;SDS011;42435;53.292;6.000;2022-10-29T06:44:31;124.72;;;20.45;;
56537;SDS011;42435;53.292;6.000;2022-10-29T06:47:02;85.50;;;15.30;;
56537;SDS011;42435;53.292;6.000;2022-10-29T06:49:30;101.15;;;16.33;;
56537;SDS011;42435;53.292;6.000;2022-10-29T06:51:56;184.45;;;22.70;;
56537;SDS011;42435;53.292;6.000;2022-10-29T06:54:27;117.38;;;15.30;;
56537;SDS011;42435;53.292;6.000;2022-10-29T06:56:55;116.40;;;16.85;;
56537;SDS011;42435;53.292;6.000;2022-10-29T06:59:21;105.85;;;16.58;;
56537;SDS011;42435;53.292;6.000;2022-10-29T07:01:48;127.30;;;16.58;;
56537;SDS011;42435;53.292;6.000;2022-10-29T07:04:16;132.73;;;18.17;;
56537;SDS011;42435;53.292;6.000;2022-10-29T07:06:42;172.63;;;21.58;;
56537;SDS011;42435;53.292;6.000;2022-10-29T07:09:19;127.85;;;20.00;;
56537;SDS011;42435;53.292;6.000;2022-10-29T07:11:48;106.45;;;16.52;;
56537;SDS011;42435;53.292;6.000;2022-10-29T07:14:16;158.73;;;21.67;;
56537;SDS011;42435;53.292;6.000;2022-10-29T07:16:42;60.50;;;12.85;;
56537;SDS011;42435;53.292;6.000;2022-10-29T07:19:07;93.68;;;16.27;;
56537;SDS011;42435;53.292;6.000;2022-10-29T07:21:36;86.85;;;16.48;;
56537;SDS011;42435;53.292;6.000;2022-10-29T07:24:01;70.63;;;13.98;;
56537;SDS011;42435;53.292;6.000;2022-10-29T07:26:27;89.45;;;16.42;;
56537;SDS011;42435;53.292;6.000;2022-10-29T07:28:55;69.28;;;13.57;;
56537;SDS011;42435;53.292;6.000;2022-10-29T07:31:21;38.35;;;10.20;;
56537;SDS011;42435;53.292;6.000;2022-10-29T07:33:50;48.60;;;12.15;;
56537;SDS011;42435;53.292;6.000;2022-10-29T07:36:16;47.33;;;12.55;;
56537;SDS011;42435;53.292;6.000;2022-10-29T07:38:53;39.80;;;11.60;;
56537;SDS011;42435;53.292;6.000;2022-10-29T07:41:24;56.45;;;14.20;;
56537;SDS011;42435;53.292;6.000;2022-10-29T07:43:50;67.72;;;14.05;;
56537;SDS011;42435;53.292;6.000;2022-10-29T07:46:16;40.75;;;11.05;;
56537;SDS011;42435;53.292;6.000;2022-10-29T07:48:44;55.20;;;11.77;;
56537;SDS011;42435;53.292;6.000;2022-10-29T07:51:10;41.25;;;12.15;;
56537;SDS011;42435;53.292;6.000;2022-10-29T07:53:36;41.85;;;12.77;;
56537;SDS011;42435;53.292;6.000;2022-10-29T07:56:08;52.75;;;14.90;;
56537;SDS011;42435;53.292;6.000;2022-10-29T07:58:33;51.42;;;13.23;;
56537;SDS011;42435;53.292;6.000;2022-10-29T08:01:02;50.00;;;11.88;;
56537;SDS011;42435;53.292;6.000;2022-10-29T08:03:28;58.60;;;13.90;;
56537;SDS011;42435;53.292;6.000;2022-10-29T08:05:57;51.40;;;13.13;;
56537;SDS011;42435;53.292;6.000;2022-10-29T08:08:23;94.22;;;18.92;;
56537;SDS011;42435;53.292;6.000;2022-10-29T08:10:49;63.50;;;14.73;;
56537;SDS011;42435;53.292;6.000;2022-10-29T08:13:14;57.55;;;14.15;;
56537;SDS011;42435;53.292;6.000;2022-10-29T08:15:45;91.15;;;17.38;;
56537;SDS011;42435;53.292;6.000;2022-10-29T08:18:14;52.42;;;13.77;;
56537;SDS011;42435;53.292;6.000;2022-10-29T08:20:41;84.97;;;15.70;;
56537;SDS011;42435;53.292;6.000;2022-10-29T08:23:07;45.90;;;12.88;;
56537;SDS011;42435;53.292;6.000;2022-10-29T08:25:33;80.25;;;16.23;;
56537;SDS011;42435;53.292;6.000;2022-10-29T08:27:59;64.15;;;14.05;;
56537;SDS011;42435;53.292;6.000;2022-10-29T08:30:28;64.25;;;15.55;;
56537;SDS011;42435;53.292;6.000;2022-10-29T08:32:57;65.22;;;15.30;;
56537;SDS011;42435;53.292;6.000;2022-10-29T08:35:24;81.28;;;17.90;;
56537;SDS011;42435;53.292;6.000;2022-10-29T08:37:49;47.70;;;14.88;;
56537;SDS011;42435;53.292;6.000;2022-10-29T08:40:27;46.88;;;14.45;;
56537;SDS011;42435;53.292;6.000;2022-10-29T08:45:54;44.38;;;14.75;;
56537;SDS011;42435;53.292;6.000;2022-10-29T08:53:52;56.65;;;18.10;;
56537;SDS011;42435;53.292;6.000;2022-10-29T08:56:33;52.17;;;16.42;;
56537;SDS011;42435;53.292;6.000;2022-10-29T08:59:02;54.60;;;17.65;;
56537;SDS011;42435;53.292;6.000;2022-10-29T09:01:34;62.40;;;18.45;;
56537;SDS011;42435;53.292;6.000;2022-10-29T09:04:00;52.38;;;17.75;;
56537;SDS011;42435;53.292;6.000;2022-10-29T09:06:39;56.15;;;18.08;;
56537;SDS011;42435;53.292;6.000;2022-10-29T09:09:26;54.78;;;18.73;;
56537;SDS011;42435;53.292;6.000;2022-10-29T09:12:25;57.15;;;19.45;;
56537;SDS011;42435;53.292;6.000;2022-10-29T09:21:32;49.85;;;18.55;;
56537;SDS011;42435;53.292;6.000;2022-10-29T09:24:14;49.22;;;18.10;;
56537;SDS011;42435;53.292;6.000;2022-10-29T09:27:00;50.45;;;18.38;;
56537;SDS011;42435;53.292;6.000;2022-10-29T09:32:52;46.53;;;18.25;;
56537;SDS011;42435;53.292;6.000;2022-10-29T09:35:20;49.38;;;17.92;;
56537;SDS011;42435;53.292;6.000;2022-10-29T09:38:04;51.22;;;18.17;;
56537;SDS011;42435;53.292;6.000;2022-10-29T09:40:52;59.40;;;20.73;;
56537;SDS011;42435;53.292;6.000;2022-10-29T09:52:15;45.70;;;18.15;;
56537;SDS011;42435;53.292;6.000;2022-10-29T09:57:25;43.30;;;18.55;;
56537;SDS011;42435;53.292;6.000;2022-10-29T10:00:56;40.30;;;17.33;;
56537;SDS011;42435;53.292;6.000;2022-10-29T10:03:06;41.78;;;18.08;;
56537;SDS011;42435;53.292;6.000;2022-10-29T10:05:54;42.92;;;19.98;;
56537;SDS011;42435;53.292;6.000;2022-10-29T10:08:33;40.83;;;17.65;;
56537;SDS011;42435;53.292;6.000;2022-10-29T10:11:18;37.75;;;18.30;;
56537;SDS011;42435;53.292;6.000;2022-10-29T10:13:56;38.13;;;18.45;;
56537;SDS011;42435;53.292;6.000;2022-10-29T10:16:25;43.70;;;20.08;;
56537;SDS011;42435;53.292;6.000;2022-10-29T10:18:52;37.17;;;18.90;;
56537;SDS011;42435;53.292;6.000;2022-10-29T10:21:28;34.78;;;17.42;;
56537;SDS011;42435;53.292;6.000;2022-10-29T10:23:58;37.05;;;18.05;;
56537;SDS011;42435;53.292;6.000;2022-10-29T10:26:37;34.30;;;17.75;;
56537;SDS011;42435;53.292;6.000;2022-10-29T10:29:10;34.40;;;18.00;;
56537;SDS011;42435;53.292;6.000;2022-10-29T10:31:47;32.60;;;17.30;;
56537;SDS011;42435;53.292;6.000;2022-10-29T10:34:21;37.15;;;17.40;;
56537;SDS011;42435;53.292;6.000;2022-10-29T10:37:04;34.85;;;18.10;;
56537;SDS011;42435;53.292;6.000;2022-10-29T10:39:36;35.47;;;17.10;;
56537;SDS011;42435;53.292;6.000;2022-10-29T10:42:13;30.42;;;17.38;;
56537;SDS011;42435;53.292;6.000;2022-10-29T10:45:01;30.85;;;15.77;;
56537;SDS011;42435;53.292;6.000;2022-10-29T10:47:36;35.63;;;17.40;;
56537;SDS011;42435;53.292;6.000;2022-10-29T10:50:28;33.33;;;16.80;;
56537;SDS011;42435;53.292;6.000;2022-10-29T10:52:54;31.40;;;17.25;;
56537;SDS011;42435;53.292;6.000;2022-10-29T10:57:57;29.77;;;16.98;;
56537;SDS011;42435;53.292;6.000;2022-10-29T11:00:35;30.95;;;17.02;;
56537;SDS011;42435;53.292;6.000;2022-10-29T11:05:45;32.03;;;17.02;;
56537;SDS011;42435;53.292;6.000;2022-10-29T11:08:25;30.52;;;16.67;;
56537;SDS011;42435;53.292;6.000;2022-10-29T11:11:11;28.58;;;17.40;;
56537;SDS011;42435;53.292;6.000;2022-10-29T11:13:52;25.77;;;14.88;;
56537;SDS011;42435;53.292;6.000;2022-10-29T11:16:26;28.60;;;15.52;;
56537;SDS011;42435;53.292;6.000;2022-10-29T11:19:03;26.10;;;14.43;;
56537;SDS011;42435;53.292;6.000;2022-10-29T11:27:47;21.25;;;13.75;;
56537;SDS011;42435;53.292;6.000;2022-10-29T11:30:17;24.13;;;13.63;;
56537;SDS011;42435;53.292;6.000;2022-10-29T11:35:40;23.77;;;14.73;;
56537;SDS011;42435;53.292;6.000;2022-10-29T11:38:24;23.98;;;13.43;;
56537;SDS011;42435;53.292;6.000;2022-10-29T11:43:58;20.73;;;12.55;;
56537;SDS011;42435;53.292;6.000;2022-10-29T11:49:38;21.20;;;12.35;;
56537;SDS011;42435;53.292;6.000;2022-10-29T11:57:58;19.13;;;11.80;;
56537;SDS011;42435;53.292;6.000;2022-10-29T12:00:48;23.08;;;11.73;;
56537;SDS011;42435;53.292;6.000;2022-10-29T12:03:38;20.33;;;12.10;;
56537;SDS011;42435;53.292;6.000;2022-10-29T12:06:41;21.80;;;11.73;;
56537;SDS011;42435;53.292;6.000;2022-10-29T12:12:47;20.75;;;11.18;;
56537;SDS011;42435;53.292;6.000;2022-10-29T12:14:58;24.67;;;11.75;;
56537;SDS011;42435;53.292;6.000;2022-10-29T12:17:38;17.00;;;9.85;;
56537;SDS011;42435;53.292;6.000;2022-10-29T12:20:16;16.88;;;10.60;;
56537;SDS011;42435;53.292;6.000;2022-10-29T12:23:02;17.02;;;10.45;;
56537;SDS011;42435;53.292;6.000;2022-10-29T12:25:59;18.63;;;10.65;;
56537;SDS011;42435;53.292;6.000;2022-10-29T12:39:20;23.30;;;9.93;;
56537;SDS011;42435;53.292;6.000;2022-10-29T12:42:13;18.33;;;9.48;;
56537;SDS011;42435;53.292;6.000;2022-10-29T12:47:22;23.42;;;10.73;;
56537;SDS011;42435;53.292;6.000;2022-10-29T12:52:35;18.17;;;8.98;;
56537;SDS011;42435;53.292;6.000;2022-10-29T12:55:08;19.90;;;10.27;;
56537;SDS011;42435;53.292;6.000;2022-10-29T12:57:36;18.10;;;10.32;;
56537;SDS011;42435;53.292;6.000;2022-10-29T13:02:50;21.75;;;10.98;;
56537;SDS011;42435;53.292;6.000;2022-10-29T13:15:41;19.40;;;10.82;;
56537;SDS011;42435;53.292;6.000;2022-10-29T13:20:38;22.52;;;11.02;;
56537;SDS011;42435;53.292;6.000;2022-10-29T13:23:50;17.73;;;10.90;;
56537;SDS011;42435;53.292;6.000;2022-10-29T13:25:56;22.50;;;12.43;;
56537;SDS011;42435;53.292;6.000;2022-10-29T13:30:49;19.15;;;11.60;;
56537;SDS011;42435;53.292;6.000;2022-10-29T13:35:51;20.58;;;11.70;;
56537;SDS011;42435;53.292;6.000;2022-10-29T13:43:39;18.67;;;11.82;;
56537;SDS011;42435;53.292;6.000;2022-10-29T13:46:16;21.35;;;12.60;;
56537;SDS011;42435;53.292;6.000;2022-10-29T13:49:02;21.25;;;11.57;;
56537;SDS011;42435;53.292;6.000;2022-10-29T13:51:39;18.92;;;11.32;;
56537;SDS011;42435;53.292;6.000;2022-10-29T14:00:04;16.52;;;11.20;;
56537;SDS011;42435;53.292;6.000;2022-10-29T14:02:41;20.08;;;11.70;;
56537;SDS011;42435;53.292;6.000;2022-10-29T14:05:20;20.20;;;11.98;;
56537;SDS011;42435;53.292;6.000;2022-10-29T14:07:57;21.30;;;10.68;;
56537;SDS011;42435;53.292;6.000;2022-10-29T14:13:17;20.57;;;10.20;;
56537;SDS011;42435;53.292;6.000;2022-10-29T14:18:30;18.63;;;9.93;;
56537;SDS011;42435;53.292;6.000;2022-10-29T14:21:04;17.90;;;10.15;;
56537;SDS011;42435;53.292;6.000;2022-10-29T14:26:13;18.90;;;9.05;;
56537;SDS011;42435;53.292;6.000;2022-10-29T14:28:40;17.50;;;9.65;;
56537;SDS011;42435;53.292;6.000;2022-10-29T14:36:38;18.90;;;10.13;;
56537;SDS011;42435;53.292;6.000;2022-10-29T14:41:48;16.65;;;9.40;;
56537;SDS011;42435;53.292;6.000;2022-10-29T14:44:18;16.98;;;9.52;;
56537;SDS011;42435;53.292;6.000;2022-10-29T14:47:00;18.75;;;9.30;;
56537;SDS011;42435;53.292;6.000;2022-10-29T14:49:33;19.88;;;10.82;;
56537;SDS011;42435;53.292;6.000;2022-10-29T14:52:15;15.45;;;9.27;;
56537;SDS011;42435;53.292;6.000;2022-10-29T14:54:57;18.30;;;9.57;;
56537;SDS011;42435;53.292;6.000;2022-10-29T14:57:26;15.60;;;9.20;;
56537;SDS011;42435;53.292;6.000;2022-10-29T14:59:57;17.38;;;10.25;;
56537;SDS011;42435;53.292;6.000;2022-10-29T15:02:33;17.83;;;9.82;;
56537;SDS011;42435;53.292;6.000;2022-10-29T15:05:15;20.88;;;10.20;;
56537;SDS011;42435;53.292;6.000;2022-10-29T15:07:47;17.45;;;9.65;;
56537;SDS011;42435;53.292;6.000;2022-10-29T15:10:17;20.15;;;9.73;;
56537;SDS011;42435;53.292;6.000;2022-10-29T15:12:49;18.25;;;10.40;;
56537;SDS011;42435;53.292;6.000;2022-10-29T15:17:58;17.55;;;9.52;;
56537;SDS011;42435;53.292;6.000;2022-10-29T15:26:08;20.63;;;10.07;;
56537;SDS011;42435;53.292;6.000;2022-10-29T15:28:52;16.20;;;9.38;;
56537;SDS011;42435;53.292;6.000;2022-10-29T15:31:20;17.60;;;11.45;;
56537;SDS011;42435;53.292;6.000;2022-10-29T15:33:48;16.90;;;9.43;;
56537;SDS011;42435;53.292;6.000;2022-10-29T15:36:18;15.32;;;8.98;;
56537;SDS011;42435;53.292;6.000;2022-10-29T15:43:49;18.52;;;9.90;;
56537;SDS011;42435;53.292;6.000;2022-10-29T15:48:56;18.23;;;10.40;;
56537;SDS011;42435;53.292;6.000;2022-10-29T15:51:23;18.17;;;10.45;;
56537;SDS011;42435;53.292;6.000;2022-10-29T15:53:51;21.00;;;11.30;;
56537;SDS011;42435;53.292;6.000;2022-10-29T15:56:26;21.10;;;10.55;;
56537;SDS011;42435;53.292;6.000;2022-10-29T15:58:53;17.80;;;10.35;;
56537;SDS011;42435;53.292;6.000;2022-10-29T16:01:18;19.73;;;10.70;;
56537;SDS011;42435;53.292;6.000;2022-10-29T16:03:44;41.97;;;22.45;;
56537;SDS011;42435;53.292;6.000;2022-10-29T16:06:10;20.60;;;12.20;;
56537;SDS011;42435;53.292;6.000;2022-10-29T16:08:37;24.08;;;12.18;;
56537;SDS011;42435;53.292;6.000;2022-10-29T16:11:04;20.75;;;11.15;;
56537;SDS011;42435;53.292;6.000;2022-10-29T16:13:34;19.02;;;10.93;;
56537;SDS011;42435;53.292;6.000;2022-10-29T16:16:00;21.67;;;10.88;;
56537;SDS011;42435;53.292;6.000;2022-10-29T16:18:26;19.80;;;11.00;;
56537;SDS011;42435;53.292;6.000;2022-10-29T16:20:56;21.80;;;11.52;;
56537;SDS011;42435;53.292;6.000;2022-10-29T16:23:23;22.27;;;12.32;;
56537;SDS011;42435;53.292;6.000;2022-10-29T16:25:49;19.98;;;10.85;;
56537;SDS011;42435;53.292;6.000;2022-10-29T16:28:17;19.63;;;11.25;;
56537;SDS011;42435;53.292;6.000;2022-10-29T16:30:44;19.65;;;12.15;;
56537;SDS011;42435;53.292;6.000;2022-10-29T16:33:14;22.65;;;13.13;;
56537;SDS011;42435;53.292;6.000;2022-10-29T16:35:41;24.08;;;12.93;;
56537;SDS011;42435;53.292;6.000;2022-10-29T16:38:07;27.20;;;13.77;;
56537;SDS011;42435;53.292;6.000;2022-10-29T16:40:32;21.80;;;12.52;;
56537;SDS011;42435;53.292;6.000;2022-10-29T16:42:58;22.80;;;13.43;;
56537;SDS011;42435;53.292;6.000;2022-10-29T16:45:27;24.67;;;13.07;;
56537;SDS011;42435;53.292;6.000;2022-10-29T16:47:54;24.80;;;12.82;;
56537;SDS011;42435;53.292;6.000;2022-10-29T16:52:47;23.58;;;12.20;;
56537;SDS011;42435;53.292;6.000;2022-10-29T16:55:19;22.25;;;12.57;;
56537;SDS011;42435;53.292;6.000;2022-10-29T16:57:45;23.52;;;13.88;;
56537;SDS011;42435;53.292;6.000;2022-10-29T17:00:10;24.08;;;13.02;;
56537;SDS011;42435;53.292;6.000;2022-10-29T17:02:36;23.73;;;12.38;;
56537;SDS011;42435;53.292;6.000;2022-10-29T17:05:04;23.50;;;13.60;;
56537;SDS011;42435;53.292;6.000;2022-10-29T17:07:31;27.80;;;13.45;;
56537;SDS011;42435;53.292;6.000;2022-10-29T17:09:57;19.80;;;12.30;;
56537;SDS011;42435;53.292;6.000;2022-10-29T17:12:23;22.30;;;13.25;;
56537;SDS011;42435;53.292;6.000;2022-10-29T17:14:49;23.25;;;13.18;;
56537;SDS011;42435;53.292;6.000;2022-10-29T17:17:15;20.63;;;12.98;;
56537;SDS011;42435;53.292;6.000;2022-10-29T17:19:41;24.25;;;13.35;;
56537;SDS011;42435;53.292;6.000;2022-10-29T17:22:06;24.15;;;13.15;;
56537;SDS011;42435;53.292;6.000;2022-10-29T17:24:37;26.27;;;14.68;;
56537;SDS011;42435;53.292;6.000;2022-10-29T17:27:03;24.25;;;12.80;;
56537;SDS011;42435;53.292;6.000;2022-10-29T17:29:28;23.65;;;14.55;;
56537;SDS011;42435;53.292;6.000;2022-10-29T17:31:57;23.80;;;14.48;;
56537;SDS011;42435;53.292;6.000;2022-10-29T17:34:22;22.00;;;13.40;;
56537;SDS011;42435;53.292;6.000;2022-10-29T17:36:49;27.70;;;14.20;;
56537;SDS011;42435;53.292;6.000;2022-10-29T17:39:15;26.13;;;13.75;;